createdAt,value
2022-12-11T00:02:07.093Z,6.30
2022-12-11T00:04:33.987Z,3.80
2022-12-11T00:07:00.967Z,4.90
2022-12-11T00:09:27.827Z,3.43
2022-12-11T00:11:54.723Z,3.10
2022-12-11T00:14:21.796Z,4.00
2022-12-11T00:16:49.802Z,4.00
2022-12-11T00:19:17.028Z,3.67
2022-12-11T00:21:43.942Z,3.70
2022-12-11T00:24:11.029Z,6.20
2022-12-11T00:26:38.266Z,3.03
2022-12-11T00:29:05.218Z,4.93
2022-12-11T00:31:32.244Z,3.77
2022-12-11T00:33:59.275Z,4.20
2022-12-11T00:36:27.095Z,3.70
2022-12-11T00:38:54.326Z,3.60
2022-12-11T00:41:21.816Z,7.20
2022-12-11T00:43:48.914Z,3.43
2022-12-11T00:46:15.866Z,4.83
2022-12-11T00:48:42.867Z,5.03
2022-12-11T00:51:10.860Z,6.03
2022-12-11T00:53:38.719Z,3.40
2022-12-11T00:56:17.700Z,4.73
2022-12-11T00:58:46.101Z,5.30
2022-12-11T01:01:16.192Z,4.87
2022-12-11T01:03:43.317Z,4.00
2022-12-11T01:06:15.571Z,4.93
2022-12-11T01:08:42.937Z,3.70
2022-12-11T01:11:12.001Z,3.37
2022-12-11T01:13:39.556Z,4.13
2022-12-11T01:16:12.260Z,4.00
2022-12-11T01:18:39.403Z,2.73
2022-12-11T01:21:11.186Z,3.73
2022-12-11T01:23:39.041Z,3.43
2022-12-11T01:26:07.865Z,3.60
2022-12-11T01:28:34.889Z,4.63
2022-12-11T01:31:01.899Z,4.20
2022-12-11T01:33:29.043Z,3.90
2022-12-11T01:35:56.008Z,3.17
2022-12-11T01:38:22.908Z,3.77
2022-12-11T01:40:51.769Z,2.70
2022-12-11T01:43:19.521Z,3.60
2022-12-11T01:45:48.243Z,4.27
2022-12-11T01:48:19.475Z,3.73
2022-12-11T01:50:55.138Z,2.90
2022-12-11T01:53:29.347Z,3.17
2022-12-11T01:55:58.111Z,3.60
2022-12-11T01:58:28.855Z,2.77
2022-12-11T02:00:56.312Z,2.67
2022-12-11T02:03:23.481Z,3.77
2022-12-11T02:05:50.558Z,4.27
2022-12-11T02:08:17.615Z,3.07
2022-12-11T02:11:19.194Z,3.27
2022-12-11T02:14:09.564Z,4.07
2022-12-11T02:16:45.866Z,2.90
2022-12-11T02:19:29.616Z,3.10
2022-12-11T02:21:57.845Z,4.00
2022-12-11T02:24:27.812Z,4.00
2022-12-11T02:27:09.678Z,3.70
2022-12-11T02:29:50.100Z,3.87
2022-12-11T02:32:21.643Z,3.00
2022-12-11T02:34:55.977Z,3.47
2022-12-11T02:37:25.463Z,3.20
2022-12-11T02:39:54.699Z,3.33
2022-12-11T02:42:22.040Z,2.93
2022-12-11T02:44:50.370Z,3.37
2022-12-11T02:47:17.981Z,2.93
2022-12-11T02:49:48.002Z,4.23
2022-12-11T02:52:16.815Z,2.70
2022-12-11T02:54:44.713Z,4.10
2022-12-11T02:57:25.094Z,4.30
2022-12-11T02:59:51.995Z,3.63
2022-12-11T03:02:19.158Z,3.67
2022-12-11T03:04:48.535Z,4.63
2022-12-11T03:07:23.615Z,6.77
2022-12-11T03:09:51.614Z,3.90
2022-12-11T03:12:29.346Z,4.53
2022-12-11T03:14:58.022Z,4.10
2022-12-11T03:17:31.071Z,4.97
2022-12-11T03:20:10.119Z,4.83
2022-12-11T03:22:52.398Z,6.93
2022-12-11T03:25:23.424Z,5.20
2022-12-11T03:28:13.704Z,4.13
2022-12-11T03:30:42.460Z,3.73
2022-12-11T03:33:23.231Z,4.13
2022-12-11T03:35:56.669Z,5.90
2022-12-11T03:38:38.136Z,4.90
2022-12-11T03:41:06.111Z,5.53
2022-12-11T03:43:33.451Z,5.80
2022-12-11T03:46:01.243Z,4.00
2022-12-11T03:48:33.117Z,4.40
2022-12-11T03:51:01.238Z,4.23
2022-12-11T03:53:28.345Z,5.97
2022-12-11T03:55:56.697Z,4.90
2022-12-11T03:58:23.661Z,5.43
2022-12-11T04:00:50.550Z,5.40
2022-12-11T04:03:18.153Z,5.73
2022-12-11T04:05:48.257Z,5.10
2022-12-11T04:08:15.879Z,7.43
2022-12-11T04:10:43.347Z,6.10
2022-12-11T04:13:10.954Z,7.53
2022-12-11T04:15:38.593Z,8.93
2022-12-11T04:18:25.456Z,5.67
2022-12-11T04:21:14.535Z,10.73
2022-12-11T04:23:59.997Z,9.33
2022-12-11T04:26:26.979Z,9.33
2022-12-11T04:28:53.878Z,8.57
2022-12-11T04:31:22.416Z,7.20
2022-12-11T04:33:49.916Z,9.13
2022-12-11T04:36:17.273Z,10.20
2022-12-11T04:38:44.146Z,7.93
2022-12-11T04:41:12.808Z,8.07
2022-12-11T04:43:40.381Z,8.20
2022-12-11T04:46:09.840Z,6.63
2022-12-11T04:48:37.211Z,6.50
2022-12-11T04:51:05.004Z,7.03
2022-12-11T04:53:32.076Z,7.43
2022-12-11T04:55:59.074Z,8.63
2022-12-11T04:58:26.544Z,6.70
2022-12-11T05:00:53.892Z,8.43
2022-12-11T05:03:20.847Z,6.33
2022-12-11T05:05:52.159Z,7.17
2022-12-11T05:08:19.842Z,7.47
2022-12-11T05:10:59.639Z,8.43
2022-12-11T05:13:27.491Z,8.30
2022-12-11T05:15:54.674Z,8.13
2022-12-11T05:18:21.851Z,9.43
2022-12-11T05:21:01.915Z,6.93
2022-12-11T05:23:29.139Z,7.67
2022-12-11T05:26:00.480Z,7.97
2022-12-11T05:28:31.796Z,11.27
2022-12-11T05:31:00.684Z,9.57
2022-12-11T05:33:28.475Z,6.13
2022-12-11T05:35:55.444Z,10.33
2022-12-11T05:38:22.916Z,9.37
2022-12-11T05:41:17.164Z,6.17
2022-12-11T05:43:44.378Z,9.63
2022-12-11T05:46:20.436Z,6.70
2022-12-11T05:48:49.313Z,7.23
2022-12-11T05:51:16.704Z,9.30
2022-12-11T05:53:44.524Z,7.40
2022-12-11T05:56:16.885Z,10.97
2022-12-11T05:58:44.789Z,8.10
2022-12-11T06:01:14.453Z,7.33
2022-12-11T06:03:41.709Z,8.67
2022-12-11T06:06:09.002Z,7.73
2022-12-11T06:08:36.198Z,8.47
2022-12-11T06:11:03.919Z,7.57
2022-12-11T06:13:31.119Z,9.37
2022-12-11T06:16:05.828Z,7.47
2022-12-11T06:18:36.670Z,7.97
2022-12-11T06:21:13.806Z,6.97
2022-12-11T06:23:41.785Z,9.23
2022-12-11T06:26:09.728Z,8.70
2022-12-11T06:28:37.203Z,8.13
2022-12-11T06:31:04.882Z,7.67
2022-12-11T06:33:31.984Z,8.73
2022-12-11T06:36:07.263Z,10.67
2022-12-11T06:38:34.402Z,11.10
2022-12-11T06:41:05.053Z,11.00
2022-12-11T06:43:32.714Z,8.47
2022-12-11T06:46:03.852Z,12.40
2022-12-11T06:48:31.375Z,11.27
2022-12-11T06:50:58.268Z,9.33
2022-12-11T06:53:25.176Z,11.53
2022-12-11T06:55:52.049Z,13.90
2022-12-11T06:58:18.944Z,12.27
2022-12-11T07:00:46.043Z,10.83
2022-12-11T07:03:13.916Z,8.37
2022-12-11T07:05:40.839Z,9.83
2022-12-11T07:08:07.790Z,11.33
2022-12-11T07:10:34.698Z,11.97
2022-12-11T07:13:01.556Z,8.33
2022-12-11T07:15:28.618Z,9.37
2022-12-11T07:17:55.484Z,10.23
2022-12-11T07:20:22.502Z,13.90
2022-12-11T07:22:49.435Z,8.57
2022-12-11T07:25:16.485Z,10.63
2022-12-11T07:27:43.783Z,8.80
2022-12-11T07:30:11.570Z,9.40
2022-12-11T07:32:38.703Z,9.17
2022-12-11T07:35:05.952Z,9.87
2022-12-11T07:37:33.164Z,8.77
2022-12-11T07:40:00.050Z,9.53
2022-12-11T07:42:27.053Z,8.83
2022-12-11T07:44:53.917Z,10.13
2022-12-11T07:47:20.838Z,11.67
2022-12-11T07:49:48.616Z,9.40
2022-12-11T07:52:15.499Z,9.13
2022-12-11T07:54:42.431Z,11.50
2022-12-11T07:57:14.159Z,11.67
2022-12-11T07:59:42.039Z,10.00
2022-12-11T08:02:11.168Z,12.47
2022-12-11T08:04:38.328Z,12.50
2022-12-11T08:07:05.275Z,11.13
2022-12-11T08:09:32.238Z,10.07
2022-12-11T08:11:59.198Z,8.47
2022-12-11T08:14:26.197Z,9.53
2022-12-11T08:16:53.095Z,7.63
2022-12-11T08:19:20.074Z,8.27
2022-12-11T08:21:47.171Z,8.77
2022-12-11T08:24:16.543Z,9.70
2022-12-11T08:26:43.540Z,9.47
2022-12-11T08:29:10.519Z,9.03
2022-12-11T08:31:37.412Z,7.97
2022-12-11T08:34:04.279Z,9.73
2022-12-11T08:36:31.309Z,10.93
2022-12-11T08:38:58.288Z,10.43
2022-12-11T08:41:27.713Z,9.83
2022-12-11T08:43:55.621Z,8.77
2022-12-11T08:46:27.009Z,8.57
2022-12-11T08:48:54.883Z,10.07
2022-12-11T08:51:23.936Z,10.30
2022-12-11T08:53:51.601Z,11.37
2022-12-11T08:56:20.981Z,10.70
2022-12-11T08:58:47.949Z,11.27
2022-12-11T09:01:18.185Z,9.23
2022-12-11T09:03:45.396Z,10.47
2022-12-11T09:06:15.436Z,10.17
2022-12-11T09:08:48.551Z,11.40
2022-12-11T09:11:24.982Z,11.40
2022-12-11T09:13:52.212Z,8.97
2022-12-11T09:16:21.060Z,8.07
2022-12-11T09:18:49.037Z,7.20
2022-12-11T09:21:20.028Z,8.70
2022-12-11T09:23:47.385Z,7.87
2022-12-11T09:26:17.489Z,8.47
2022-12-11T09:28:46.849Z,7.90
2022-12-11T09:31:28.366Z,8.97
2022-12-11T09:33:58.417Z,10.47
2022-12-11T09:36:25.862Z,9.23
2022-12-11T09:38:52.824Z,9.57
2022-12-11T09:41:22.949Z,7.80
2022-12-11T09:43:58.325Z,6.97
2022-12-11T09:46:26.892Z,10.67
2022-12-11T09:48:55.617Z,8.13
2022-12-11T09:51:33.519Z,7.90
2022-12-11T09:54:02.376Z,8.20
2022-12-11T09:56:58.846Z,7.50
2022-12-11T09:59:41.258Z,8.47
2022-12-11T10:02:30.476Z,7.27
2022-12-11T10:05:09.619Z,7.27
2022-12-11T10:07:45.933Z,7.73
2022-12-11T10:10:45.124Z,8.90
2022-12-11T10:13:35.977Z,9.27
2022-12-11T10:16:50.462Z,7.07
2022-12-11T10:19:22.999Z,8.53
2022-12-11T10:21:51.327Z,10.37
2022-12-11T10:24:57.915Z,9.53
2022-12-11T10:27:24.868Z,8.63
2022-12-11T10:30:15.068Z,7.57
2022-12-11T10:32:47.563Z,9.10
2022-12-11T10:35:48.487Z,6.67
2022-12-11T10:38:31.572Z,7.33
2022-12-11T10:41:05.984Z,8.47
2022-12-11T10:43:42.617Z,10.00
2022-12-11T10:46:26.760Z,8.30
2022-12-11T10:48:57.975Z,8.93
2022-12-11T10:51:36.594Z,8.77
2022-12-11T10:54:18.881Z,8.00
2022-12-11T10:56:47.723Z,8.80
2022-12-11T10:59:24.528Z,8.03
2022-12-11T11:01:51.676Z,9.80
2022-12-11T11:04:30.912Z,9.23
2022-12-11T11:07:11.259Z,7.23
2022-12-11T11:09:39.988Z,7.27
2022-12-11T11:12:27.771Z,8.60
2022-12-11T11:15:12.561Z,9.43
2022-12-11T11:17:54.474Z,8.60
2022-12-11T11:20:27.880Z,10.93
2022-12-11T11:22:57.676Z,10.37
2022-12-11T11:25:32.848Z,9.80
2022-12-11T11:28:05.750Z,8.60
2022-12-11T11:30:36.466Z,9.37
2022-12-11T11:33:21.557Z,9.17
2022-12-11T11:36:08.328Z,8.17
2022-12-11T11:38:40.013Z,8.37
2022-12-11T11:41:17.799Z,11.00
2022-12-11T11:43:47.601Z,9.47
2022-12-11T11:46:21.268Z,8.30
2022-12-11T11:48:53.973Z,8.33
2022-12-11T11:51:35.138Z,9.03
2022-12-11T11:54:09.735Z,7.33
2022-12-11T11:56:38.046Z,7.23
2022-12-11T11:59:24.512Z,8.70
2022-12-11T12:01:54.856Z,8.57
2022-12-11T12:04:21.995Z,9.47
2022-12-11T12:06:58.059Z,8.43
2022-12-11T12:09:48.652Z,8.40
2022-12-11T12:12:38.612Z,9.47
2022-12-11T12:15:18.688Z,8.13
2022-12-11T12:18:07.648Z,8.50
2022-12-11T12:20:46.919Z,9.57
2022-12-11T12:23:36.941Z,8.33
2022-12-11T12:26:04.589Z,8.73
2022-12-11T12:28:36.749Z,8.17
2022-12-11T12:31:40.851Z,8.10
2022-12-11T12:34:40.212Z,8.30
2022-12-11T12:37:22.032Z,8.10
2022-12-11T12:40:27.815Z,8.53
2022-12-11T12:42:58.715Z,6.77
2022-12-11T12:45:35.331Z,8.83
2022-12-11T12:48:02.418Z,9.37
2022-12-11T12:50:43.669Z,7.93
2022-12-11T12:53:16.914Z,8.43
2022-12-11T12:55:44.284Z,7.50
2022-12-11T12:58:40.109Z,8.83
2022-12-11T13:01:15.825Z,7.90
2022-12-11T13:04:02.436Z,8.67
2022-12-11T13:06:38.324Z,8.07
2022-12-11T13:09:22.890Z,8.03
2022-12-11T13:11:53.976Z,8.80
2022-12-11T13:14:23.879Z,9.27
2022-12-11T13:16:52.283Z,7.33
2022-12-11T13:19:27.635Z,7.93
2022-12-11T13:22:15.887Z,8.37
2022-12-11T13:24:51.879Z,10.83
2022-12-11T13:27:28.008Z,8.03
2022-12-11T13:30:05.826Z,9.27
2022-12-11T13:32:33.559Z,7.23
2022-12-11T13:35:05.252Z,8.63
2022-12-11T13:37:36.145Z,7.77
2022-12-11T13:40:07.136Z,7.27
2022-12-11T13:42:44.802Z,9.33
2022-12-11T13:45:33.448Z,8.73
2022-12-11T13:48:00.854Z,7.90
2022-12-11T13:50:35.127Z,8.60
2022-12-11T13:53:05.148Z,7.97
2022-12-11T13:55:34.139Z,9.73
2022-12-11T13:58:01.269Z,8.13
2022-12-11T14:00:30.634Z,9.00
2022-12-11T14:02:59.851Z,7.00
2022-12-11T14:05:27.857Z,7.70
2022-12-11T14:07:59.265Z,8.07
2022-12-11T14:10:28.341Z,8.90
2022-12-11T14:13:02.192Z,9.97
2022-12-11T14:15:30.897Z,9.57
2022-12-11T14:17:58.708Z,7.23
2022-12-11T14:20:28.407Z,10.23
2022-12-11T14:23:25.002Z,8.23
2022-12-11T14:25:55.912Z,9.70
2022-12-11T14:28:27.627Z,8.90
2022-12-11T14:31:01.885Z,10.13
2022-12-11T14:33:44.192Z,17.50
2022-12-11T14:36:11.789Z,37.40
2022-12-11T14:38:44.990Z,30.03
2022-12-11T14:41:34.657Z,27.50
2022-12-11T14:44:03.678Z,37.23
2022-12-11T14:46:55.038Z,37.40
2022-12-11T14:49:42.955Z,38.80
2022-12-11T14:52:19.216Z,43.43
2022-12-11T14:55:00.806Z,37.90
2022-12-11T14:57:29.557Z,31.50
2022-12-11T14:59:57.180Z,35.37
2022-12-11T15:02:33.343Z,35.97
2022-12-11T15:05:20.510Z,43.60
2022-12-11T15:07:59.844Z,23.97
2022-12-11T15:10:37.074Z,26.53
2022-12-11T15:13:05.356Z,23.90
2022-12-11T15:15:36.257Z,27.53
2022-12-11T15:18:06.197Z,24.60
2022-12-11T15:20:33.178Z,19.37
2022-12-11T15:23:02.030Z,18.10
2022-12-11T15:25:29.957Z,18.17
2022-12-11T15:27:59.860Z,17.70
2022-12-11T15:30:29.264Z,15.83
2022-12-11T15:33:19.037Z,12.37
2022-12-11T15:36:01.865Z,12.43
2022-12-11T15:38:37.897Z,10.23
2022-12-11T15:41:05.390Z,11.53
2022-12-11T15:43:36.029Z,9.40
2022-12-11T15:46:03.801Z,10.07
2022-12-11T15:48:30.794Z,8.57
2022-12-11T15:50:58.462Z,14.03
2022-12-11T15:53:25.412Z,10.73
2022-12-11T15:55:53.219Z,8.87
2022-12-11T15:58:21.726Z,7.17
2022-12-11T16:00:48.602Z,9.53
2022-12-11T16:03:17.933Z,10.80
2022-12-11T16:05:45.276Z,9.33
2022-12-11T16:08:18.569Z,9.57
2022-12-11T16:10:46.487Z,9.47
2022-12-11T16:13:13.910Z,10.70
2022-12-11T16:15:43.499Z,9.07
2022-12-11T16:18:12.874Z,9.00
2022-12-11T16:20:41.183Z,9.33
2022-12-11T16:23:08.852Z,11.97
2022-12-11T16:25:37.951Z,8.77
2022-12-11T16:28:05.263Z,10.67
2022-12-11T16:30:32.265Z,7.67
2022-12-11T16:32:59.193Z,8.93
2022-12-11T16:35:26.126Z,7.80
2022-12-11T16:37:53.847Z,7.03
2022-12-11T16:40:21.014Z,7.40
2022-12-11T16:42:48.004Z,6.60
2022-12-11T16:45:20.056Z,6.80
2022-12-11T16:47:47.024Z,6.77
2022-12-11T16:50:15.822Z,8.00
2022-12-11T16:52:42.854Z,9.33
2022-12-11T16:55:12.176Z,7.67
2022-12-11T16:57:39.455Z,7.63
2022-12-11T17:00:09.018Z,6.17
2022-12-11T17:02:36.647Z,6.13
2022-12-11T17:05:04.019Z,7.03
2022-12-11T17:07:32.735Z,5.93
2022-12-11T17:10:02.021Z,8.10
2022-12-11T17:12:29.736Z,6.73
2022-12-11T17:14:57.013Z,6.27
2022-12-11T17:17:24.445Z,6.07
2022-12-11T17:19:51.349Z,7.00
2022-12-11T17:22:18.291Z,8.93
2022-12-11T17:24:45.218Z,7.17
2022-12-11T17:27:12.180Z,7.57
2022-12-11T17:29:39.237Z,8.13
2022-12-11T17:32:06.416Z,6.87
2022-12-11T17:34:37.837Z,6.80
2022-12-11T17:37:05.832Z,7.27
2022-12-11T17:39:32.812Z,6.30
2022-12-11T17:41:59.804Z,6.07
2022-12-11T17:44:27.072Z,5.93
2022-12-11T17:46:53.993Z,4.93
2022-12-11T17:49:20.902Z,6.17
2022-12-11T17:51:48.194Z,5.40
2022-12-11T17:54:15.286Z,5.13
2022-12-11T17:56:42.236Z,4.60
2022-12-11T17:59:09.096Z,6.33
2022-12-11T18:01:36.115Z,5.10
2022-12-11T18:04:03.232Z,5.60
2022-12-11T18:06:30.726Z,5.70
2022-12-11T18:08:58.056Z,8.60
2022-12-11T18:11:25.040Z,6.87
2022-12-11T18:13:53.143Z,7.57
2022-12-11T18:16:29.967Z,7.50
2022-12-11T18:18:57.110Z,8.67
2022-12-11T18:21:29.752Z,7.53
2022-12-11T18:23:57.091Z,9.13
2022-12-11T18:26:24.439Z,7.40
2022-12-11T18:28:53.131Z,9.97
2022-12-11T18:31:21.747Z,7.67
2022-12-11T18:33:49.095Z,7.70
2022-12-11T18:36:17.849Z,9.40
2022-12-11T18:38:44.941Z,9.97
2022-12-11T18:41:13.493Z,7.50
2022-12-11T18:43:40.787Z,9.23
2022-12-11T18:46:14.391Z,8.37
2022-12-11T18:48:42.471Z,7.40
2022-12-11T18:51:11.622Z,7.97
2022-12-11T18:53:42.068Z,7.20
2022-12-11T18:56:11.828Z,7.90
2022-12-11T18:58:38.992Z,7.67
2022-12-11T19:01:20.976Z,6.97
2022-12-11T19:03:48.487Z,6.87
2022-12-11T19:06:18.349Z,8.13
2022-12-11T19:08:45.907Z,7.40
2022-12-11T19:11:17.746Z,7.87
2022-12-11T19:13:45.057Z,7.77
2022-12-11T19:16:23.459Z,7.87
2022-12-11T19:18:50.711Z,9.50
2022-12-11T19:21:18.749Z,8.43
2022-12-11T19:23:46.575Z,12.73
2022-12-11T19:26:15.848Z,10.37
2022-12-11T19:28:43.187Z,10.20
2022-12-11T19:31:12.465Z,8.37
2022-12-11T19:33:40.817Z,8.27
2022-12-11T19:36:13.710Z,8.20
2022-12-11T19:38:41.839Z,8.03
2022-12-11T19:41:14.530Z,8.30
2022-12-11T19:43:41.407Z,8.67
2022-12-11T19:46:09.055Z,8.73
2022-12-11T19:48:41.566Z,7.67
2022-12-11T19:51:16.555Z,7.97
2022-12-11T19:53:45.238Z,8.03
2022-12-11T19:56:13.359Z,7.20
2022-12-11T19:58:40.492Z,6.43
2022-12-11T20:01:07.686Z,7.33
2022-12-11T20:03:35.274Z,8.93
2022-12-11T20:06:06.311Z,7.23
2022-12-11T20:08:44.747Z,7.10
2022-12-11T20:11:17.582Z,8.63
2022-12-11T20:13:48.808Z,7.70
2022-12-11T20:16:17.019Z,13.03
2022-12-11T20:18:44.246Z,11.30
2022-12-11T20:21:14.591Z,8.37
2022-12-11T20:23:42.253Z,9.07
2022-12-11T20:26:13.592Z,9.50
2022-12-11T20:28:40.885Z,10.13
2022-12-11T20:31:19.489Z,13.50
2022-12-11T20:33:48.871Z,13.07
2022-12-11T20:36:17.509Z,12.03
2022-12-11T20:38:44.698Z,12.50
2022-12-11T20:41:13.496Z,12.73
2022-12-11T20:43:40.958Z,14.20
2022-12-11T20:46:10.098Z,11.17
2022-12-11T20:48:37.457Z,10.47
2022-12-11T20:51:05.696Z,13.73
2022-12-11T20:53:32.788Z,15.53
2022-12-11T20:55:59.712Z,14.17
2022-12-11T20:58:26.774Z,18.17
2022-12-11T21:00:53.821Z,15.57
2022-12-11T21:03:20.747Z,25.40
2022-12-11T21:05:48.003Z,21.37
2022-12-11T21:08:14.968Z,18.30
2022-12-11T21:10:44.132Z,19.20
2022-12-11T21:13:11.306Z,21.77
2022-12-11T21:15:39.836Z,19.67
2022-12-11T21:18:07.852Z,18.47
2022-12-11T21:20:35.375Z,18.57
2022-12-11T21:23:03.367Z,22.27
2022-12-11T21:25:31.468Z,21.03
2022-12-11T21:27:59.417Z,18.87
2022-12-11T21:30:26.383Z,17.57
2022-12-11T21:32:53.514Z,17.07
2022-12-11T21:35:20.486Z,17.20
2022-12-11T21:37:47.415Z,13.17
2022-12-11T21:40:14.383Z,15.17
2022-12-11T21:42:41.376Z,12.57
2022-12-11T21:45:58.882Z,13.63
2022-12-11T21:47:55.314Z,11.10
2022-12-11T21:50:22.174Z,10.43
2022-12-11T21:52:49.140Z,10.23
2022-12-11T21:55:18.355Z,8.90
2022-12-11T21:57:45.262Z,9.53
2022-12-11T22:00:12.864Z,9.67
2022-12-11T22:02:41.285Z,8.23
2022-12-11T22:05:09.183Z,7.50
2022-12-11T22:07:36.340Z,8.30
2022-12-11T22:10:03.877Z,6.73
2022-12-11T22:12:30.778Z,8.13
2022-12-11T22:14:59.026Z,7.17
2022-12-11T22:17:25.954Z,8.77
2022-12-11T22:19:52.830Z,14.73
2022-12-11T22:22:20.024Z,11.30
2022-12-11T22:24:47.784Z,11.23
2022-12-11T22:27:19.062Z,12.87
2022-12-11T22:29:48.985Z,10.83
2022-12-11T22:32:15.879Z,9.00
2022-12-11T22:34:42.766Z,11.53
2022-12-11T22:37:09.676Z,8.87
2022-12-11T22:39:36.553Z,9.30
2022-12-11T22:42:03.560Z,11.13
2022-12-11T22:44:30.432Z,10.20
2022-12-11T22:46:57.647Z,10.63
2022-12-11T22:49:24.603Z,9.63
2022-12-11T22:51:51.494Z,8.63
2022-12-11T22:54:18.399Z,8.30
2022-12-11T22:56:45.328Z,7.60
2022-12-11T22:59:12.359Z,8.13
2022-12-11T23:01:39.343Z,10.20
2022-12-11T23:04:06.318Z,9.87
2022-12-11T23:06:33.406Z,8.87
2022-12-11T23:09:01.221Z,14.37
2022-12-11T23:11:31.102Z,8.70
2022-12-11T23:13:58.215Z,7.93
2022-12-11T23:16:26.480Z,8.80
2022-12-11T23:18:54.908Z,9.70
2022-12-11T23:21:22.619Z,9.47
2022-12-11T23:23:49.539Z,9.17
2022-12-11T23:26:18.901Z,8.07
2022-12-11T23:28:46.679Z,9.90
2022-12-11T23:31:14.282Z,8.87
2022-12-11T23:33:41.242Z,10.23
2022-12-11T23:36:09.202Z,8.77
2022-12-11T23:38:36.319Z,10.43
2022-12-11T23:41:04.347Z,9.57
2022-12-11T23:43:31.854Z,8.20
2022-12-11T23:45:58.870Z,8.43
2022-12-11T23:48:25.923Z,8.57
2022-12-11T23:50:52.977Z,8.07
2022-12-11T23:53:19.847Z,8.80
2022-12-11T23:55:46.811Z,7.87
2022-12-11T23:58:13.813Z,8.67
